sensor_id;sensor_type;location;lat;lon;timestamp;temperature;humidity
74809;DHT22;63338;39.544;2.596;2023-03-14T00:02:07;18.00;69.10
74809;DHT22;63338;39.544;2.596;2023-03-14T00:04:33;18.30;67.60
74809;DHT22;63338;39.544;2.596;2023-03-14T00:06:59;18.50;67.40
74809;DHT22;63338;39.544;2.596;2023-03-14T00:09:25;18.60;67.20
74809;DHT22;63338;39.544;2.596;2023-03-14T00:11:53;18.60;71.00
74809;DHT22;63338;39.544;2.596;2023-03-14T00:14:19;18.70;76.40
74809;DHT22;63338;39.544;2.596;2023-03-14T00:16:48;18.60;77.10
74809;DHT22;63338;39.544;2.596;2023-03-14T00:19:14;18.50;77.80
74809;DHT22;63338;39.544;2.596;2023-03-14T00:21:40;18.40;78.10
74809;DHT22;63338;39.544;2.596;2023-03-14T00:24:07;18.30;78.40
74809;DHT22;63338;39.544;2.596;2023-03-14T00:26:33;18.10;79.20
74809;DHT22;63338;39.544;2.596;2023-03-14T00:28:59;18.10;78.40
74809;DHT22;63338;39.544;2.596;2023-03-14T00:31:25;17.90;75.10
74809;DHT22;63338;39.544;2.596;2023-03-14T00:33:52;17.90;74.20
74809;DHT22;63338;39.544;2.596;2023-03-14T00:36:19;17.90;74.00
74809;DHT22;63338;39.544;2.596;2023-03-14T00:38:48;17.90;72.10
74809;DHT22;63338;39.544;2.596;2023-03-14T00:41:19;18.20;67.50
74809;DHT22;63338;39.544;2.596;2023-03-14T00:43:45;18.30;66.20
74809;DHT22;63338;39.544;2.596;2023-03-14T00:46:12;18.50;65.30
74809;DHT22;63338;39.544;2.596;2023-03-14T00:48:41;18.60;63.50
74809;DHT22;63338;39.544;2.596;2023-03-14T00:51:08;18.90;62.50
74809;DHT22;63338;39.544;2.596;2023-03-14T00:53:38;19.10;61.30
74809;DHT22;63338;39.544;2.596;2023-03-14T00:56:06;19.30;59.70
74809;DHT22;63338;39.544;2.596;2023-03-14T00:58:32;19.40;58.60
74809;DHT22;63338;39.544;2.596;2023-03-14T01:01:02;19.60;57.80
74809;DHT22;63338;39.544;2.596;2023-03-14T01:03:30;19.60;57.60
74809;DHT22;63338;39.544;2.596;2023-03-14T01:06:07;19.70;56.50
74809;DHT22;63338;39.544;2.596;2023-03-14T01:08:33;19.70;56.10
74809;DHT22;63338;39.544;2.596;2023-03-14T01:10:59;19.80;55.60
74809;DHT22;63338;39.544;2.596;2023-03-14T01:13:25;19.90;55.00
74809;DHT22;63338;39.544;2.596;2023-03-14T01:15:51;19.90;54.70
74809;DHT22;63338;39.544;2.596;2023-03-14T01:18:17;19.90;53.70
74809;DHT22;63338;39.544;2.596;2023-03-14T01:20:43;20.00;53.60
74809;DHT22;63338;39.544;2.596;2023-03-14T01:23:09;19.90;53.60
74809;DHT22;63338;39.544;2.596;2023-03-14T01:25:41;20.00;53.50
74809;DHT22;63338;39.544;2.596;2023-03-14T01:28:07;20.00;52.80
74809;DHT22;63338;39.544;2.596;2023-03-14T01:30:33;19.90;52.70
74809;DHT22;63338;39.544;2.596;2023-03-14T01:32:59;19.90;52.60
74809;DHT22;63338;39.544;2.596;2023-03-14T01:35:25;20.00;52.10
74809;DHT22;63338;39.544;2.596;2023-03-14T01:37:51;19.90;52.10
74809;DHT22;63338;39.544;2.596;2023-03-14T01:40:17;19.90;51.80
74809;DHT22;63338;39.544;2.596;2023-03-14T01:42:57;20.00;51.70
74809;DHT22;63338;39.544;2.596;2023-03-14T01:48:31;19.90;52.20
74809;DHT22;63338;39.544;2.596;2023-03-14T01:50:59;19.80;52.20
74809;DHT22;63338;39.544;2.596;2023-03-14T01:53:29;19.80;52.80
74809;DHT22;63338;39.544;2.596;2023-03-14T01:55:55;19.70;53.00
74809;DHT22;63338;39.544;2.596;2023-03-14T01:58:24;19.60;53.30
74809;DHT22;63338;39.544;2.596;2023-03-14T02:00:53;19.70;53.30
74809;DHT22;63338;39.544;2.596;2023-03-14T02:03:20;19.50;53.80
74809;DHT22;63338;39.544;2.596;2023-03-14T02:05:48;19.60;53.40
74809;DHT22;63338;39.544;2.596;2023-03-14T02:08:17;19.50;53.40
74809;DHT22;63338;39.544;2.596;2023-03-14T02:10:47;19.50;53.80
74809;DHT22;63338;39.544;2.596;2023-03-14T02:13:14;19.40;53.20
74809;DHT22;63338;39.544;2.596;2023-03-14T02:15:41;19.40;53.10
74809;DHT22;63338;39.544;2.596;2023-03-14T02:18:10;19.30;53.00
74809;DHT22;63338;39.544;2.596;2023-03-14T02:26:38;19.30;52.40
74809;DHT22;63338;39.544;2.596;2023-03-14T02:29:06;19.20;52.10
74809;DHT22;63338;39.544;2.596;2023-03-14T02:31:32;19.10;51.80
74809;DHT22;63338;39.544;2.596;2023-03-14T02:33:59;19.10;50.80
74809;DHT22;63338;39.544;2.596;2023-03-14T02:36:27;19.00;50.30
74809;DHT22;63338;39.544;2.596;2023-03-14T02:41:26;19.00;49.90
74809;DHT22;63338;39.544;2.596;2023-03-14T02:43:52;18.90;49.30
74809;DHT22;63338;39.544;2.596;2023-03-14T02:46:20;18.90;49.50
74809;DHT22;63338;39.544;2.596;2023-03-14T02:49:08;19.00;49.80
74809;DHT22;63338;39.544;2.596;2023-03-14T02:51:36;18.90;49.30
74809;DHT22;63338;39.544;2.596;2023-03-14T02:54:03;19.00;49.20
74809;DHT22;63338;39.544;2.596;2023-03-14T02:56:29;18.90;49.20
74809;DHT22;63338;39.544;2.596;2023-03-14T02:58:55;18.90;48.70
74809;DHT22;63338;39.544;2.596;2023-03-14T03:01:24;18.80;48.10
74809;DHT22;63338;39.544;2.596;2023-03-14T03:03:50;18.90;48.50
74809;DHT22;63338;39.544;2.596;2023-03-14T03:06:16;18.90;48.30
74809;DHT22;63338;39.544;2.596;2023-03-14T03:08:42;18.80;48.60
74809;DHT22;63338;39.544;2.596;2023-03-14T03:11:08;18.80;48.90
74809;DHT22;63338;39.544;2.596;2023-03-14T03:13:35;18.70;48.90
74809;DHT22;63338;39.544;2.596;2023-03-14T03:16:01;18.70;48.90
74809;DHT22;63338;39.544;2.596;2023-03-14T03:18:27;18.70;48.70
74809;DHT22;63338;39.544;2.596;2023-03-14T03:20:54;18.70;49.10
74809;DHT22;63338;39.544;2.596;2023-03-14T03:23:20;18.60;49.00
74809;DHT22;63338;39.544;2.596;2023-03-14T03:25:50;18.60;49.30
74809;DHT22;63338;39.544;2.596;2023-03-14T03:28:17;18.60;49.30
74809;DHT22;63338;39.544;2.596;2023-03-14T03:30:43;18.50;49.20
74809;DHT22;63338;39.544;2.596;2023-03-14T03:33:10;18.60;49.30
74809;DHT22;63338;39.544;2.596;2023-03-14T03:35:48;18.50;49.50
74809;DHT22;63338;39.544;2.596;2023-03-14T03:38:15;18.50;49.70
74809;DHT22;63338;39.544;2.596;2023-03-14T03:40:41;18.50;49.70
74809;DHT22;63338;39.544;2.596;2023-03-14T03:43:07;18.50;49.20
74809;DHT22;63338;39.544;2.596;2023-03-14T03:45:34;18.50;49.40
74809;DHT22;63338;39.544;2.596;2023-03-14T03:48:00;18.40;49.70
74809;DHT22;63338;39.544;2.596;2023-03-14T03:50:26;18.40;49.90
74809;DHT22;63338;39.544;2.596;2023-03-14T03:52:52;18.30;49.90
74809;DHT22;63338;39.544;2.596;2023-03-14T03:55:18;18.40;50.10
74809;DHT22;63338;39.544;2.596;2023-03-14T03:57:44;18.30;50.30
74809;DHT22;63338;39.544;2.596;2023-03-14T04:00:11;18.30;50.30
74809;DHT22;63338;39.544;2.596;2023-03-14T04:02:40;18.30;49.90
74809;DHT22;63338;39.544;2.596;2023-03-14T04:05:07;18.30;49.10
74809;DHT22;63338;39.544;2.596;2023-03-14T04:07:36;18.10;50.50
74809;DHT22;63338;39.544;2.596;2023-03-14T04:10:02;18.20;48.90
74809;DHT22;63338;39.544;2.596;2023-03-14T04:12:28;18.20;48.40
74809;DHT22;63338;39.544;2.596;2023-03-14T04:14:55;18.10;49.90
74809;DHT22;63338;39.544;2.596;2023-03-14T04:17:20;18.20;49.20
74809;DHT22;63338;39.544;2.596;2023-03-14T04:19:47;18.10;50.60
74809;DHT22;63338;39.544;2.596;2023-03-14T04:22:15;18.10;51.10
74809;DHT22;63338;39.544;2.596;2023-03-14T04:24:41;18.00;51.90
74809;DHT22;63338;39.544;2.596;2023-03-14T04:27:07;17.90;52.00
74809;DHT22;63338;39.544;2.596;2023-03-14T04:29:33;17.70;52.40
74809;DHT22;63338;39.544;2.596;2023-03-14T04:31:59;17.70;52.60
74809;DHT22;63338;39.544;2.596;2023-03-14T04:34:25;17.60;53.10
74809;DHT22;63338;39.544;2.596;2023-03-14T04:36:51;17.70;53.40
74809;DHT22;63338;39.544;2.596;2023-03-14T04:39:17;17.60;54.10
74809;DHT22;63338;39.544;2.596;2023-03-14T04:41:44;17.40;54.20
74809;DHT22;63338;39.544;2.596;2023-03-14T04:44:11;17.50;53.90
74809;DHT22;63338;39.544;2.596;2023-03-14T04:46:37;17.50;54.50
74809;DHT22;63338;39.544;2.596;2023-03-14T04:49:03;17.50;54.10
74809;DHT22;63338;39.544;2.596;2023-03-14T04:51:29;17.40;53.30
74809;DHT22;63338;39.544;2.596;2023-03-14T04:53:55;17.40;52.80
74809;DHT22;63338;39.544;2.596;2023-03-14T04:56:21;17.50;52.90
74809;DHT22;63338;39.544;2.596;2023-03-14T04:58:47;17.30;52.60
74809;DHT22;63338;39.544;2.596;2023-03-14T05:01:13;17.40;52.40
74809;DHT22;63338;39.544;2.596;2023-03-14T05:03:39;17.30;52.60
74809;DHT22;63338;39.544;2.596;2023-03-14T05:06:05;17.30;52.10
74809;DHT22;63338;39.544;2.596;2023-03-14T05:08:34;17.40;52.20
74809;DHT22;63338;39.544;2.596;2023-03-14T05:11:00;17.40;52.10
74809;DHT22;63338;39.544;2.596;2023-03-14T05:13:26;17.50;52.40
74809;DHT22;63338;39.544;2.596;2023-03-14T05:15:52;17.40;52.50
74809;DHT22;63338;39.544;2.596;2023-03-14T05:18:18;17.40;52.30
74809;DHT22;63338;39.544;2.596;2023-03-14T05:20:44;17.40;52.40
74809;DHT22;63338;39.544;2.596;2023-03-14T05:23:10;17.40;52.50
74809;DHT22;63338;39.544;2.596;2023-03-14T05:25:36;17.40;52.30
74809;DHT22;63338;39.544;2.596;2023-03-14T05:28:02;17.40;52.50
74809;DHT22;63338;39.544;2.596;2023-03-14T05:30:29;17.30;52.90
74809;DHT22;63338;39.544;2.596;2023-03-14T05:32:56;17.30;53.10
74809;DHT22;63338;39.544;2.596;2023-03-14T05:35:22;17.40;53.00
74809;DHT22;63338;39.544;2.596;2023-03-14T05:37:48;17.20;53.30
74809;DHT22;63338;39.544;2.596;2023-03-14T05:40:14;17.30;52.80
74809;DHT22;63338;39.544;2.596;2023-03-14T05:42:40;17.20;53.20
74809;DHT22;63338;39.544;2.596;2023-03-14T05:45:07;17.10;52.80
74809;DHT22;63338;39.544;2.596;2023-03-14T05:47:33;17.30;53.00
74809;DHT22;63338;39.544;2.596;2023-03-14T05:49:59;17.30;52.40
74809;DHT22;63338;39.544;2.596;2023-03-14T05:52:25;17.30;52.90
74809;DHT22;63338;39.544;2.596;2023-03-14T05:54:51;17.30;53.30
74809;DHT22;63338;39.544;2.596;2023-03-14T05:57:17;17.30;53.10
74809;DHT22;63338;39.544;2.596;2023-03-14T05:59:43;17.30;52.50
74809;DHT22;63338;39.544;2.596;2023-03-14T06:02:09;17.20;52.20
74809;DHT22;63338;39.544;2.596;2023-03-14T06:04:35;17.20;51.80
74809;DHT22;63338;39.544;2.596;2023-03-14T06:07:01;17.30;51.90
74809;DHT22;63338;39.544;2.596;2023-03-14T06:09:27;17.30;52.00
74809;DHT22;63338;39.544;2.596;2023-03-14T06:11:56;17.30;51.50
74809;DHT22;63338;39.544;2.596;2023-03-14T06:14:21;17.30;51.60
74809;DHT22;63338;39.544;2.596;2023-03-14T06:16:47;17.30;51.80
74809;DHT22;63338;39.544;2.596;2023-03-14T06:19:14;17.40;51.50
74809;DHT22;63338;39.544;2.596;2023-03-14T06:21:40;17.40;51.70
74809;DHT22;63338;39.544;2.596;2023-03-14T06:24:07;17.40;52.00
74809;DHT22;63338;39.544;2.596;2023-03-14T06:26:32;17.30;51.80
74809;DHT22;63338;39.544;2.596;2023-03-14T06:28:58;17.30;51.80
74809;DHT22;63338;39.544;2.596;2023-03-14T06:31:32;17.40;51.80
74809;DHT22;63338;39.544;2.596;2023-03-14T06:33:58;17.40;51.90
74809;DHT22;63338;39.544;2.596;2023-03-14T06:36:25;17.40;52.10
74809;DHT22;63338;39.544;2.596;2023-03-14T06:38:51;17.30;52.10
74809;DHT22;63338;39.544;2.596;2023-03-14T06:41:17;17.50;51.60
74809;DHT22;63338;39.544;2.596;2023-03-14T06:43:44;17.50;51.60
74809;DHT22;63338;39.544;2.596;2023-03-14T06:46:10;17.60;51.90
74809;DHT22;63338;39.544;2.596;2023-03-14T06:48:36;17.60;51.90
74809;DHT22;63338;39.544;2.596;2023-03-14T06:51:02;17.60;51.80
74809;DHT22;63338;39.544;2.596;2023-03-14T06:53:28;17.80;52.10
74809;DHT22;63338;39.544;2.596;2023-03-14T06:55:54;17.80;51.70
74809;DHT22;63338;39.544;2.596;2023-03-14T06:58:20;18.10;51.80
74809;DHT22;63338;39.544;2.596;2023-03-14T07:00:48;18.20;50.10
74809;DHT22;63338;39.544;2.596;2023-03-14T07:03:15;18.30;50.20
74809;DHT22;63338;39.544;2.596;2023-03-14T07:05:41;18.40;50.40
74809;DHT22;63338;39.544;2.596;2023-03-14T07:08:08;18.50;50.10
74809;DHT22;63338;39.544;2.596;2023-03-14T07:10:34;18.50;50.20
74809;DHT22;63338;39.544;2.596;2023-03-14T07:13:00;18.60;50.00
74809;DHT22;63338;39.544;2.596;2023-03-14T07:15:27;18.60;50.10
74809;DHT22;63338;39.544;2.596;2023-03-14T07:17:53;18.80;49.90
74809;DHT22;63338;39.544;2.596;2023-03-14T07:20:19;19.00;49.60
74809;DHT22;63338;39.544;2.596;2023-03-14T07:22:47;19.40;49.40
74809;DHT22;63338;39.544;2.596;2023-03-14T07:25:15;19.80;48.50
74809;DHT22;63338;39.544;2.596;2023-03-14T07:27:43;19.80;48.20
74809;DHT22;63338;39.544;2.596;2023-03-14T07:30:10;19.80;48.30
74809;DHT22;63338;39.544;2.596;2023-03-14T07:32:36;19.70;48.20
74809;DHT22;63338;39.544;2.596;2023-03-14T07:35:02;19.50;48.20
74809;DHT22;63338;39.544;2.596;2023-03-14T07:37:29;19.50;48.20
74809;DHT22;63338;39.544;2.596;2023-03-14T07:39:55;19.50;48.60
74809;DHT22;63338;39.544;2.596;2023-03-14T07:42:21;19.50;48.80
74809;DHT22;63338;39.544;2.596;2023-03-14T07:44:47;19.40;49.10
74809;DHT22;63338;39.544;2.596;2023-03-14T07:47:13;19.50;49.00
74809;DHT22;63338;39.544;2.596;2023-03-14T07:49:39;19.50;49.40
74809;DHT22;63338;39.544;2.596;2023-03-14T07:52:05;19.60;48.70
74809;DHT22;63338;39.544;2.596;2023-03-14T07:54:31;19.60;49.10
74809;DHT22;63338;39.544;2.596;2023-03-14T07:56:57;20.00;48.40
74809;DHT22;63338;39.544;2.596;2023-03-14T07:59:27;20.70;48.20
74809;DHT22;63338;39.544;2.596;2023-03-14T08:01:53;21.50;45.90
74809;DHT22;63338;39.544;2.596;2023-03-14T08:04:19;22.50;44.90
74809;DHT22;63338;39.544;2.596;2023-03-14T08:06:45;23.00;43.70
74809;DHT22;63338;39.544;2.596;2023-03-14T08:09:14;23.40;42.20
74809;DHT22;63338;39.544;2.596;2023-03-14T08:11:40;23.80;40.70
74809;DHT22;63338;39.544;2.596;2023-03-14T08:14:07;24.10;41.00
74809;DHT22;63338;39.544;2.596;2023-03-14T08:16:33;24.20;39.30
74809;DHT22;63338;39.544;2.596;2023-03-14T08:18:58;24.40;39.70
74809;DHT22;63338;39.544;2.596;2023-03-14T08:21:24;24.70;40.00
74809;DHT22;63338;39.544;2.596;2023-03-14T08:23:53;25.20;39.30
74809;DHT22;63338;39.544;2.596;2023-03-14T08:26:20;25.40;38.00
74809;DHT22;63338;39.544;2.596;2023-03-14T08:28:46;25.60;38.30
74809;DHT22;63338;39.544;2.596;2023-03-14T08:31:15;25.80;37.50
74809;DHT22;63338;39.544;2.596;2023-03-14T08:33:42;26.00;37.80
74809;DHT22;63338;39.544;2.596;2023-03-14T08:36:08;26.20;37.00
74809;DHT22;63338;39.544;2.596;2023-03-14T08:42:56;26.80;36.10
74809;DHT22;63338;39.544;2.596;2023-03-14T08:45:33;26.50;34.60
74809;DHT22;63338;39.544;2.596;2023-03-14T08:48:05;26.30;36.10
74809;DHT22;63338;39.544;2.596;2023-03-14T08:50:31;26.20;35.80
74809;DHT22;63338;39.544;2.596;2023-03-14T08:52:57;26.10;35.40
74809;DHT22;63338;39.544;2.596;2023-03-14T08:55:26;26.10;35.80
74809;DHT22;63338;39.544;2.596;2023-03-14T08:57:55;26.00;35.70
74809;DHT22;63338;39.544;2.596;2023-03-14T09:00:21;25.90;35.80
74809;DHT22;63338;39.544;2.596;2023-03-14T09:02:47;25.80;35.80
74809;DHT22;63338;39.544;2.596;2023-03-14T09:05:13;25.70;35.50
74809;DHT22;63338;39.544;2.596;2023-03-14T09:07:40;25.70;35.60
74809;DHT22;63338;39.544;2.596;2023-03-14T09:10:07;25.90;35.50
74809;DHT22;63338;39.544;2.596;2023-03-14T09:12:34;25.90;35.60
74809;DHT22;63338;39.544;2.596;2023-03-14T09:15:00;25.70;34.70
74809;DHT22;63338;39.544;2.596;2023-03-14T09:17:26;25.40;35.70
74809;DHT22;63338;39.544;2.596;2023-03-14T09:19:52;25.00;36.10
74809;DHT22;63338;39.544;2.596;2023-03-14T09:22:18;24.50;36.70
74809;DHT22;63338;39.544;2.596;2023-03-14T09:24:44;24.40;37.00
74809;DHT22;63338;39.544;2.596;2023-03-14T09:27:10;24.30;37.10
74809;DHT22;63338;39.544;2.596;2023-03-14T09:29:36;24.40;37.10
74809;DHT22;63338;39.544;2.596;2023-03-14T09:32:02;24.50;36.60
74809;DHT22;63338;39.544;2.596;2023-03-14T09:34:29;24.40;36.70
74809;DHT22;63338;39.544;2.596;2023-03-14T09:36:55;24.20;36.60
74809;DHT22;63338;39.544;2.596;2023-03-14T09:39:24;24.00;36.80
74809;DHT22;63338;39.544;2.596;2023-03-14T09:41:52;24.00;37.10
74809;DHT22;63338;39.544;2.596;2023-03-14T09:44:29;24.20;37.20
74809;DHT22;63338;39.544;2.596;2023-03-14T09:47:03;24.30;37.00
74809;DHT22;63338;39.544;2.596;2023-03-14T09:49:50;24.40;37.20
74809;DHT22;63338;39.544;2.596;2023-03-14T09:52:27;24.30;36.90
74809;DHT22;63338;39.544;2.596;2023-03-14T09:55:10;24.30;36.30
74809;DHT22;63338;39.544;2.596;2023-03-14T09:57:41;24.40;36.20
74809;DHT22;63338;39.544;2.596;2023-03-14T10:00:21;24.50;36.70
74809;DHT22;63338;39.544;2.596;2023-03-14T10:03:00;24.80;36.50
74809;DHT22;63338;39.544;2.596;2023-03-14T10:05:32;24.90;35.80
74809;DHT22;63338;39.544;2.596;2023-03-14T10:07:58;25.30;36.30
74809;DHT22;63338;39.544;2.596;2023-03-14T10:10:25;25.50;35.70
74809;DHT22;63338;39.544;2.596;2023-03-14T10:12:57;26.20;35.70
74809;DHT22;63338;39.544;2.596;2023-03-14T10:15:30;26.50;34.80
74809;DHT22;63338;39.544;2.596;2023-03-14T10:17:59;27.00;33.70
74809;DHT22;63338;39.544;2.596;2023-03-14T10:20:33;27.20;33.40
74809;DHT22;63338;39.544;2.596;2023-03-14T10:23:07;27.20;32.90
74809;DHT22;63338;39.544;2.596;2023-03-14T10:25:46;27.20;33.00
74809;DHT22;63338;39.544;2.596;2023-03-14T10:28:27;27.10;33.40
74809;DHT22;63338;39.544;2.596;2023-03-14T10:30:55;27.30;34.20
74809;DHT22;63338;39.544;2.596;2023-03-14T10:33:30;27.40;35.00
74809;DHT22;63338;39.544;2.596;2023-03-14T10:36:02;27.30;35.60
74809;DHT22;63338;39.544;2.596;2023-03-14T10:38:36;27.40;35.90
74809;DHT22;63338;39.544;2.596;2023-03-14T10:41:13;27.80;36.10
74809;DHT22;63338;39.544;2.596;2023-03-14T10:43:40;28.00;35.60
74809;DHT22;63338;39.544;2.596;2023-03-14T10:46:16;28.10;34.50
74809;DHT22;63338;39.544;2.596;2023-03-14T10:48:43;28.30;34.90
74809;DHT22;63338;39.544;2.596;2023-03-14T10:51:19;28.60;34.60
74809;DHT22;63338;39.544;2.596;2023-03-14T10:54:02;28.80;34.90
74809;DHT22;63338;39.544;2.596;2023-03-14T10:56:34;29.30;33.70
74809;DHT22;63338;39.544;2.596;2023-03-14T10:59:02;29.50;33.40
74809;DHT22;63338;39.544;2.596;2023-03-14T11:07:10;29.60;33.20
74809;DHT22;63338;39.544;2.596;2023-03-14T11:21:29;29.30;32.80
74809;DHT22;63338;39.544;2.596;2023-03-14T11:38:14;29.10;31.90
74809;DHT22;63338;39.544;2.596;2023-03-14T11:40:41;29.10;31.00
74809;DHT22;63338;39.544;2.596;2023-03-14T11:43:35;29.20;31.60
74809;DHT22;63338;39.544;2.596;2023-03-14T11:46:19;29.50;31.90
74809;DHT22;63338;39.544;2.596;2023-03-14T11:49:01;29.50;31.10
74809;DHT22;63338;39.544;2.596;2023-03-14T11:51:35;29.20;31.30
74809;DHT22;63338;39.544;2.596;2023-03-14T11:54:16;29.40;31.80
74809;DHT22;63338;39.544;2.596;2023-03-14T11:57:10;29.40;32.40
74809;DHT22;63338;39.544;2.596;2023-03-14T12:02:16;29.50;32.50
74809;DHT22;63338;39.544;2.596;2023-03-14T12:05:39;29.00;33.00
74809;DHT22;63338;39.544;2.596;2023-03-14T12:10:30;27.00;34.40
74809;DHT22;63338;39.544;2.596;2023-03-14T12:12:57;26.60;33.70
74809;DHT22;63338;39.544;2.596;2023-03-14T12:15:23;26.50;34.10
74809;DHT22;63338;39.544;2.596;2023-03-14T12:17:56;26.70;33.50
74809;DHT22;63338;39.544;2.596;2023-03-14T12:20:24;26.80;34.50
74809;DHT22;63338;39.544;2.596;2023-03-14T12:22:56;27.00;35.10
74809;DHT22;63338;39.544;2.596;2023-03-14T12:25:31;27.00;33.30
74809;DHT22;63338;39.544;2.596;2023-03-14T12:28:05;26.80;33.00
74809;DHT22;63338;39.544;2.596;2023-03-14T12:30:41;26.70;32.80
74809;DHT22;63338;39.544;2.596;2023-03-14T12:33:20;26.40;33.20
74809;DHT22;63338;39.544;2.596;2023-03-14T12:35:51;26.00;33.90
74809;DHT22;63338;39.544;2.596;2023-03-14T12:38:23;26.00;34.60
74809;DHT22;63338;39.544;2.596;2023-03-14T12:43:34;25.30;35.40
74809;DHT22;63338;39.544;2.596;2023-03-14T12:46:09;25.20;36.10
74809;DHT22;63338;39.544;2.596;2023-03-14T12:48:42;24.90;36.30
74809;DHT22;63338;39.544;2.596;2023-03-14T12:56:45;24.40;37.50
74809;DHT22;63338;39.544;2.596;2023-03-14T12:59:30;24.30;36.90
74809;DHT22;63338;39.544;2.596;2023-03-14T13:02:02;23.90;37.10
74809;DHT22;63338;39.544;2.596;2023-03-14T13:04:35;23.60;37.50
74809;DHT22;63338;39.544;2.596;2023-03-14T13:07:10;23.50;38.20
74809;DHT22;63338;39.544;2.596;2023-03-14T13:12:17;23.20;38.40
74809;DHT22;63338;39.544;2.596;2023-03-14T13:14:48;23.30;38.40
74809;DHT22;63338;39.544;2.596;2023-03-14T13:17:24;23.30;37.60
74809;DHT22;63338;39.544;2.596;2023-03-14T13:19:57;23.20;37.40
74809;DHT22;63338;39.544;2.596;2023-03-14T13:22:33;23.10;37.80
74809;DHT22;63338;39.544;2.596;2023-03-14T13:25:04;23.20;38.00
74809;DHT22;63338;39.544;2.596;2023-03-14T13:27:33;23.10;37.90
74809;DHT22;63338;39.544;2.596;2023-03-14T13:30:25;23.20;38.00
74809;DHT22;63338;39.544;2.596;2023-03-14T13:32:53;23.10;37.50
74809;DHT22;63338;39.544;2.596;2023-03-14T13:37:56;23.10;37.30
74809;DHT22;63338;39.544;2.596;2023-03-14T13:40:43;23.10;37.40
74809;DHT22;63338;39.544;2.596;2023-03-14T13:43:32;23.00;37.80
74809;DHT22;63338;39.544;2.596;2023-03-14T13:46:14;23.00;37.20
74809;DHT22;63338;39.544;2.596;2023-03-14T13:48:58;23.00;36.90
74809;DHT22;63338;39.544;2.596;2023-03-14T13:51:26;22.80;36.20
74809;DHT22;63338;39.544;2.596;2023-03-14T13:53:58;22.80;36.50
74809;DHT22;63338;39.544;2.596;2023-03-14T13:56:32;22.70;37.00
74809;DHT22;63338;39.544;2.596;2023-03-14T13:58:58;22.60;36.40
74809;DHT22;63338;39.544;2.596;2023-03-14T14:01:28;22.60;36.60
74809;DHT22;63338;39.544;2.596;2023-03-14T14:03:58;22.50;36.80
74809;DHT22;63338;39.544;2.596;2023-03-14T14:06:38;22.50;37.20
74809;DHT22;63338;39.544;2.596;2023-03-14T14:09:25;22.50;36.20
74809;DHT22;63338;39.544;2.596;2023-03-14T14:14:35;22.30;35.80
74809;DHT22;63338;39.544;2.596;2023-03-14T14:17:11;22.30;36.30
74809;DHT22;63338;39.544;2.596;2023-03-14T14:19:39;22.20;36.10
74809;DHT22;63338;39.544;2.596;2023-03-14T14:22:07;22.10;35.70
74809;DHT22;63338;39.544;2.596;2023-03-14T14:24:34;22.20;36.70
74809;DHT22;63338;39.544;2.596;2023-03-14T14:27:15;22.10;37.00
74809;DHT22;63338;39.544;2.596;2023-03-14T14:30:06;22.30;37.20
74809;DHT22;63338;39.544;2.596;2023-03-14T14:32:37;22.20;37.00
74809;DHT22;63338;39.544;2.596;2023-03-14T14:35:04;22.30;37.60
74809;DHT22;63338;39.544;2.596;2023-03-14T14:37:40;22.20;37.20
74809;DHT22;63338;39.544;2.596;2023-03-14T14:42:39;22.10;37.20
74809;DHT22;63338;39.544;2.596;2023-03-14T14:45:10;21.90;37.50
74809;DHT22;63338;39.544;2.596;2023-03-14T14:47:50;22.00;37.60
74809;DHT22;63338;39.544;2.596;2023-03-14T14:51:06;22.00;37.50
74809;DHT22;63338;39.544;2.596;2023-03-14T14:53:23;22.00;37.90
74809;DHT22;63338;39.544;2.596;2023-03-14T14:55:53;22.00;37.80
74809;DHT22;63338;39.544;2.596;2023-03-14T14:58:27;22.00;37.80
74809;DHT22;63338;39.544;2.596;2023-03-14T15:03:19;21.90;37.90
74809;DHT22;63338;39.544;2.596;2023-03-14T15:05:45;21.80;37.80
74809;DHT22;63338;39.544;2.596;2023-03-14T15:08:11;21.80;37.80
74809;DHT22;63338;39.544;2.596;2023-03-14T15:10:38;21.80;38.00
74809;DHT22;63338;39.544;2.596;2023-03-14T15:13:04;21.80;38.20
74809;DHT22;63338;39.544;2.596;2023-03-14T15:15:30;21.80;38.30
74809;DHT22;63338;39.544;2.596;2023-03-14T15:17:56;21.60;38.40
74809;DHT22;63338;39.544;2.596;2023-03-14T15:20:22;21.60;38.40
74809;DHT22;63338;39.544;2.596;2023-03-14T15:22:52;21.60;38.20
74809;DHT22;63338;39.544;2.596;2023-03-14T15:25:18;21.60;38.60
74809;DHT22;63338;39.544;2.596;2023-03-14T15:27:43;21.50;38.20
74809;DHT22;63338;39.544;2.596;2023-03-14T15:30:14;21.40;38.10
74809;DHT22;63338;39.544;2.596;2023-03-14T15:32:40;21.40;38.30
74809;DHT22;63338;39.544;2.596;2023-03-14T15:35:07;21.40;38.40
74809;DHT22;63338;39.544;2.596;2023-03-14T15:37:34;21.30;38.70
74809;DHT22;63338;39.544;2.596;2023-03-14T15:40:01;21.40;38.50
74809;DHT22;63338;39.544;2.596;2023-03-14T15:42:30;21.40;38.80
74809;DHT22;63338;39.544;2.596;2023-03-14T15:44:56;21.50;38.90
74809;DHT22;63338;39.544;2.596;2023-03-14T15:47:25;21.50;39.10
74809;DHT22;63338;39.544;2.596;2023-03-14T15:49:53;21.30;39.60
74809;DHT22;63338;39.544;2.596;2023-03-14T15:52:19;21.30;39.60
74809;DHT22;63338;39.544;2.596;2023-03-14T15:54:44;21.20;40.30
74809;DHT22;63338;39.544;2.596;2023-03-14T15:57:10;21.20;39.70
74809;DHT22;63338;39.544;2.596;2023-03-14T15:59:37;21.10;40.20
74809;DHT22;63338;39.544;2.596;2023-03-14T16:02:06;21.00;39.80
74809;DHT22;63338;39.544;2.596;2023-03-14T16:04:32;21.10;40.50
74809;DHT22;63338;39.544;2.596;2023-03-14T16:06:58;20.90;40.40
74809;DHT22;63338;39.544;2.596;2023-03-14T16:09:23;20.90;40.90
74809;DHT22;63338;39.544;2.596;2023-03-14T16:11:50;20.80;42.30
74809;DHT22;63338;39.544;2.596;2023-03-14T16:14:16;20.80;41.80
74809;DHT22;63338;39.544;2.596;2023-03-14T16:16:42;20.80;42.20
74809;DHT22;63338;39.544;2.596;2023-03-14T16:19:08;20.80;42.20
74809;DHT22;63338;39.544;2.596;2023-03-14T16:21:34;20.80;42.60
74809;DHT22;63338;39.544;2.596;2023-03-14T16:24:01;20.70;42.50
74809;DHT22;63338;39.544;2.596;2023-03-14T16:26:31;20.70;41.60
74809;DHT22;63338;39.544;2.596;2023-03-14T16:29:00;20.70;41.60
74809;DHT22;63338;39.544;2.596;2023-03-14T16:31:26;20.60;41.70
74809;DHT22;63338;39.544;2.596;2023-03-14T16:33:52;20.50;41.80
74809;DHT22;63338;39.544;2.596;2023-03-14T16:36:18;20.50;42.10
74809;DHT22;63338;39.544;2.596;2023-03-14T16:38:45;20.50;42.40
74809;DHT22;63338;39.544;2.596;2023-03-14T16:41:16;20.40;42.00
74809;DHT22;63338;39.544;2.596;2023-03-14T16:43:43;20.30;42.50
74809;DHT22;63338;39.544;2.596;2023-03-14T16:46:19;20.30;42.70
74809;DHT22;63338;39.544;2.596;2023-03-14T16:48:46;20.20;42.20
74809;DHT22;63338;39.544;2.596;2023-03-14T16:51:15;20.20;42.40
74809;DHT22;63338;39.544;2.596;2023-03-14T16:53:44;20.20;42.90
74809;DHT22;63338;39.544;2.596;2023-03-14T16:56:10;20.20;42.90